Time;durP1;ratioP1;P1;durP2;ratioP2;P2;SDS_P1;SDS_P2;PMS_P1;PMS_P2;Temp;Humidity;BMP_temperature;BMP_pressure;BME280_temperature;BME280_humidity;BME280_pressure;Samples;Min_cycle;Max_cycle;Signal;HPM_P1;HPM_P2
2023/10/18 00:02:22;;;;;;;;;;;;;;;4.93;72.03;98968.94;5001637;28;20337;-70
2023/10/18 00:04:48;;;;;;;;;;;;;;;4.98;72.51;98972.34;5003648;28;19929;-69
2023/10/18 00:07:13;;;;;;;;;;;;;;;5.02;71.71;98973.22;4997851;28;19948;-70
2023/10/18 00:09:45;;;;;;;;;;;;;;;5.04;71.99;98977.50;4999776;28;19987;-70
2023/10/18 00:12:16;;;;;;;;;;;;;;;5.02;72.03;98975.81;5006418;28;19932;-67
2023/10/18 00:14:45;;;;;;;;;;;;;;;5.00;71.84;98980.09;5001344;28;19921;-71
2023/10/18 00:17:12;;;;;;;;;;;;;;;4.96;71.86;98979.25;4999609;28;19922;-70
2023/10/18 00:19:40;;;;;;;;;;;;;;;4.98;71.89;98978.38;4983776;28;19956;-70
2023/10/18 00:22:12;;;;;;;;;;;;;;;5.01;71.24;98974.94;4991804;28;20375;-69
2023/10/18 00:24:40;;;;;;;;;;;;;;;5.01;71.26;98982.66;5015843;28;19929;-69
2023/10/18 00:27:09;;;;;;;;;;;;;;;5.02;72.25;98981.81;5000973;28;19921;-70
2023/10/18 00:29:36;;;;;;;;;;;;;;;5.00;71.58;98983.53;4989194;28;19989;-68
2023/10/18 00:32:03;;;;;;;;;;;;;;;4.96;71.76;98984.41;4971245;28;19968;-71
2023/10/18 00:34:29;;;;;;;;;;;;;;;4.93;71.79;98980.09;5002039;28;19974;-70
2023/10/18 00:37:01;;;;;;;;;;;;;;;4.96;72.07;98990.41;4996941;28;19989;-70
2023/10/18 00:39:27;;;;;;;;;;;;;;;4.92;71.56;98983.53;4989904;28;20339;-69
2023/10/18 00:41:54;;;;;;;;;;;;;;;4.90;71.45;98984.38;5005400;28;19926;-71
2023/10/18 00:44:23;;;;;;;;;;;;;;;4.89;71.81;98991.25;4995335;28;19921;-71
2023/10/18 00:46:53;;;;;;;;;;;;;;;4.90;71.90;98985.22;5014339;28;20440;-69
2023/10/18 00:49:22;;;;;;;;;;;;;;;4.94;71.56;98991.28;4988135;28;19921;-69
2023/10/18 00:51:51;;;;;;;;;;;;;;;4.95;71.23;99004.16;5004190;28;19926;-69
2023/10/18 00:54:19;;;;;;;;;;;;;;;4.98;71.51;98996.44;4999672;28;20006;-69
2023/10/18 00:56:45;;;;;;;;;;;;;;;5.04;71.60;98999.88;4984946;28;20315;-69
2023/10/18 00:59:18;;;;;;;;;;;;;;;5.09;71.54;98999.00;5019551;28;19943;-69
2023/10/18 01:01:46;;;;;;;;;;;;;;;5.12;71.80;99000.72;4986907;28;19925;-70
2023/10/18 01:04:24;;;;;;;;;;;;;;;5.10;71.90;99000.75;5002581;28;19921;-69
2023/10/18 01:06:51;;;;;;;;;;;;;;;5.13;71.89;99003.31;5000902;28;20044;-70
2023/10/18 01:09:18;;;;;;;;;;;;;;;5.12;71.47;99001.59;4985845;28;19925;-69
2023/10/18 01:11:46;;;;;;;;;;;;;;;5.12;71.21;99011.91;5015185;28;20245;-70
2023/10/18 01:14:16;;;;;;;;;;;;;;;5.10;71.42;99008.47;5016581;28;20086;-70
2023/10/18 01:16:44;;;;;;;;;;;;;;;5.11;71.66;99010.19;4979633;28;19964;-69
2023/10/18 01:19:14;;;;;;;;;;;;;;;5.10;71.46;99008.47;5013452;28;19925;-70
2023/10/18 01:21:45;;;;;;;;;;;;;;;5.04;71.22;99008.47;5015433;28;20390;-71
2023/10/18 01:24:14;;;;;;;;;;;;;;;5.03;71.30;99014.47;4987365;28;19921;-70
2023/10/18 01:26:40;;;;;;;;;;;;;;;5.05;72.05;99009.34;4993472;28;19932;-71
2023/10/18 01:29:09;;;;;;;;;;;;;;;5.05;71.30;99005.03;5023606;28;19921;-69
2023/10/18 01:31:36;;;;;;;;;;;;;;;5.02;71.64;99009.34;4999362;28;19965;-70
2023/10/18 01:34:05;;;;;;;;;;;;;;;5.05;71.63;99005.03;5006284;28;19922;-69
2023/10/18 01:36:31;;;;;;;;;;;;;;;5.08;71.39;99014.47;5001790;28;19928;-69
2023/10/18 01:39:01;;;;;;;;;;;;;;;5.05;71.13;99015.34;4998465;28;19932;-69
2023/10/18 01:41:29;;;;;;;;;;;;;;;5.01;71.70;99008.44;5005781;28;19925;-68
2023/10/18 01:43:59;;;;;;;;;;;;;;;5.01;71.81;99016.19;5005291;28;19922;-68
2023/10/18 01:46:25;;;;;;;;;;;;;;;5.03;71.34;99022.22;5001867;28;19968;-69
2023/10/18 01:48:51;;;;;;;;;;;;;;;5.04;71.75;99020.50;4991752;28;19921;-70
2023/10/18 01:51:17;;;;;;;;;;;;;;;5.04;71.58;99018.78;4991268;28;19978;-70
2023/10/18 01:53:43;;;;;;;;;;;;;;;5.03;71.33;99011.91;5008471;28;19921;-69
2023/10/18 01:56:10;;;;;;;;;;;;;;;5.05;71.32;99014.50;5003107;28;19944;-69
2023/10/18 01:58:36;;;;;;;;;;;;;;;5.05;71.29;99017.91;5018404;28;19922;-69
2023/10/18 02:01:10;;;;;;;;;;;;;;;5.05;71.43;99019.66;4989085;28;19926;-69
2023/10/18 02:03:39;;;;;;;;;;;;;;;5.06;70.58;99026.53;5002923;28;19953;-68
2023/10/18 02:06:06;;;;;;;;;;;;;;;5.04;71.20;99018.78;4984226;28;19933;-66
2023/10/18 02:08:35;;;;;;;;;;;;;;;5.05;71.09;99023.06;4996616;28;19931;-68
2023/10/18 02:11:06;;;;;;;;;;;;;;;5.08;71.59;99023.09;5019290;28;19933;-67
2023/10/18 02:13:32;;;;;;;;;;;;;;;5.12;70.79;99022.22;5005759;28;19922;-66
2023/10/18 02:16:14;;;;;;;;;;;;;;;5.15;71.08;99026.53;5017893;28;19922;-67
2023/10/18 02:18:40;;;;;;;;;;;;;;;5.01;71.49;98992.13;4982228;28;20411;-68
2023/10/18 02:21:30;;;;;;;;;;;;;;;5.25;71.60;99032.53;5000939;28;19926;-66
2023/10/18 02:23:57;;;;;;;;;;;;;;;5.32;71.36;99012.75;4983937;28;19946;-71
2023/10/18 02:28:54;;;;;;;;;;;;;;;5.22;71.68;98991.28;5014308;28;19922;-66
2023/10/18 02:31:22;;;;;;;;;;;;;;;5.52;71.15;99020.50;4995547;28;19932;-67
2023/10/18 02:33:48;;;;;;;;;;;;;;;5.56;70.83;99019.66;4984142;28;19984;-70
2023/10/18 02:36:21;;;;;;;;;;;;;;;5.54;70.89;99019.63;4983754;28;20431;-68
2023/10/18 02:38:50;;;;;;;;;;;;;;;5.53;71.27;99017.91;5000255;28;19956;-69
2023/10/18 02:41:26;;;;;;;;;;;;;;;5.48;70.37;99017.06;4997182;28;19938;-69
2023/10/18 02:43:54;;;;;;;;;;;;;;;5.48;70.93;99024.81;4968193;28;20012;-69
2023/10/18 02:46:25;;;;;;;;;;;;;;;5.50;70.80;99024.81;4983444;28;19957;-66
2023/10/18 02:48:52;;;;;;;;;;;;;;;5.50;71.30;99019.66;4987211;28;19992;-69
2023/10/18 02:51:22;;;;;;;;;;;;;;;5.54;70.70;99017.06;4999855;28;20288;-69
2023/10/18 02:53:52;;;;;;;;;;;;;;;5.54;71.12;99027.38;4983869;28;20032;-68
2023/10/18 02:57:01;;;;;;;;;;;;;;;5.54;70.72;99019.63;4986805;28;20380;-67
2023/10/18 02:59:08;;;;;;;;;;;;;;;5.55;70.88;99017.94;4985481;28;19933;-68
2023/10/18 03:01:36;;;;;;;;;;;;;;;5.51;70.65;99022.25;4978879;28;19926;-68
2023/10/18 03:04:07;;;;;;;;;;;;;;;5.45;70.47;99029.97;5010696;28;19932;-69
2023/10/18 03:06:37;;;;;;;;;;;;;;;5.41;70.49;99034.25;4985628;28;20007;-70
2023/10/18 03:09:26;;;;;;;;;;;;;;;5.39;70.82;99030.84;4985870;28;19961;-68
2023/10/18 03:11:55;;;;;;;;;;;;;;;5.42;70.56;99030.81;4999653;28;19937;-68
2023/10/18 03:15:12;;;;;;;;;;;;;;;5.40;70.35;99035.16;4985969;28;19953;-67
2023/10/18 03:20:06;;;;;;;;;;;;;;;5.18;70.87;98997.31;4971669;28;19925;-70
2023/10/18 03:22:33;;;;;;;;;;;;;;;5.37;70.51;99031.69;4984057;28;20420;-70
2023/10/18 03:24:59;;;;;;;;;;;;;;;5.34;70.29;99037.72;4994473;28;19928;-71
2023/10/18 03:27:29;;;;;;;;;;;;;;;5.32;70.57;99034.28;4995346;28;19921;-70
2023/10/18 03:30:01;;;;;;;;;;;;;;;5.28;70.42;99042.88;4985540;28;19983;-71
2023/10/18 03:32:30;;;;;;;;;;;;;;;5.23;70.65;99042.00;4983121;28;19926;-70
2023/10/18 03:34:59;;;;;;;;;;;;;;;5.18;70.47;99039.44;4997449;28;20300;-70
2023/10/18 03:37:33;;;;;;;;;;;;;;;5.16;70.78;99042.88;5002697;28;19932;-69
2023/10/18 03:40:08;;;;;;;;;;;;;;;5.13;70.04;99042.00;4983753;28;19948;-70
2023/10/18 03:42:34;;;;;;;;;;;;;;;5.10;70.95;99039.41;4995045;28;20424;-70
2023/10/18 03:45:13;;;;;;;;;;;;;;;5.07;71.09;99036.00;4964261;28;20037;-70
2023/10/18 03:47:41;;;;;;;;;;;;;;;5.09;70.89;99037.69;4980866;28;19949;-70
2023/10/18 03:50:15;;;;;;;;;;;;;;;5.04;70.80;99041.97;4995691;28;19948;-69
2023/10/18 03:52:45;;;;;;;;;;;;;;;4.98;70.76;99039.38;4994309;28;19921;-69
2023/10/18 03:55:17;;;;;;;;;;;;;;;4.93;70.80;99047.13;4979618;28;19989;-69
2023/10/18 03:57:45;;;;;;;;;;;;;;;4.94;71.14;99043.69;4982333;28;19925;-69
2023/10/18 04:02:56;;;;;;;;;;;;;;;5.01;71.16;99048.88;4982638;28;20048;-70
2023/10/18 04:05:40;;;;;;;;;;;;;;;5.01;71.09;99054.88;4983188;28;19945;-68
2023/10/18 04:08:07;;;;;;;;;;;;;;;5.03;71.01;99048.00;4994724;28;19926;-68
2023/10/18 04:10:36;;;;;;;;;;;;;;;5.00;70.79;99053.16;4995455;28;19926;-70
2023/10/18 04:13:03;;;;;;;;;;;;;;;5.01;70.96;99062.59;4987022;28;19921;-69
2023/10/18 04:15:37;;;;;;;;;;;;;;;5.02;70.62;99059.16;4988619;28;19940;-69
2023/10/18 04:20:38;;;;;;;;;;;;;;;5.01;70.92;99065.19;5017068;28;19956;-68
2023/10/18 04:23:18;;;;;;;;;;;;;;;5.01;70.36;99057.44;4991260;28;19988;-70
2023/10/18 04:26:01;;;;;;;;;;;;;;;4.97;70.96;99060.88;5000664;28;20447;-73
2023/10/18 04:28:29;;;;;;;;;;;;;;;4.94;70.94;99063.47;4988363;28;19975;-71
2023/10/18 04:31:01;;;;;;;;;;;;;;;4.93;71.19;99064.31;4987231;28;20003;-71
2023/10/18 04:33:50;;;;;;;;;;;;;;;4.92;70.69;99060.88;4994232;28;19963;-70
2023/10/18 04:36:17;;;;;;;;;;;;;;;4.91;70.30;99063.47;4987762;28;19921;-70
2023/10/18 04:38:47;;;;;;;;;;;;;;;4.89;71.00;99066.00;5002571;28;19921;-71
2023/10/18 04:46:53;;;;;;;;;;;;;;;4.86;70.89;99072.88;4873280;29;19946;-69
2023/10/18 04:49:38;;;;;;;;;;;;;;;4.86;71.03;99065.16;4980459;28;19921;-72
2023/10/18 04:52:08;;;;;;;;;;;;;;;4.87;70.61;99067.72;5003177;28;19947;-70
2023/10/18 04:54:53;;;;;;;;;;;;;;;4.87;71.08;99064.31;4985067;28;19926;-70
2023/10/18 04:57:22;;;;;;;;;;;;;;;4.73;71.54;99041.94;5005259;28;20004;-70
2023/10/18 04:59:59;;;;;;;;;;;;;;;4.97;71.44;99073.75;4980496;28;19921;-72
2023/10/18 05:02:29;;;;;;;;;;;;;;;4.98;71.72;99075.50;4974881;28;19925;-70
2023/10/18 05:04:57;;;;;;;;;;;;;;;4.98;71.38;99080.66;4992172;28;19937;-70
2023/10/18 05:07:40;;;;;;;;;;;;;;;5.01;71.14;99088.41;5007315;28;19997;-70
2023/10/18 05:10:19;;;;;;;;;;;;;;;5.06;71.67;99084.13;4991889;28;19929;-70
2023/10/18 05:13:01;;;;;;;;;;;;;;;5.09;71.43;99083.25;5001284;28;19926;-70
2023/10/18 05:15:32;;;;;;;;;;;;;;;5.08;71.31;99087.56;5010900;28;19929;-70
2023/10/18 05:18:05;;;;;;;;;;;;;;;5.06;70.70;99089.28;5002340;28;20009;-70
2023/10/18 05:23:25;;;;;;;;;;;;;;;5.12;70.95;99098.72;4992204;28;19975;-69
2023/10/18 05:26:08;;;;;;;;;;;;;;;5.12;70.95;99097.03;4999805;28;19921;-69
2023/10/18 05:28:48;;;;;;;;;;;;;;;5.16;71.00;99094.47;5004573;28;20659;-71
2023/10/18 05:34:02;;;;;;;;;;;;;;;5.22;71.38;99090.16;5007200;28;19921;-72
2023/10/18 05:39:19;;;;;;;;;;;;;;;5.95;70.87;99079.84;5022906;28;19971;-72
2023/10/18 05:41:48;;;;;;;;;;;;;;;6.16;70.06;99081.56;5007370;28;19921;-71
2023/10/18 05:44:14;;;;;;;;;;;;;;;6.31;70.12;99083.22;4990087;28;20055;-71
2023/10/18 05:46:41;;;;;;;;;;;;;;;6.46;69.94;99090.06;4995082;28;19976;-70
2023/10/18 05:49:16;;;;;;;;;;;;;;;6.72;69.82;99090.84;5008865;28;20016;-72
2023/10/18 05:54:35;;;;;;;;;;;;;;;6.44;69.46;99090.94;4990152;28;19921;-71
2023/10/18 05:57:01;;;;;;;;;;;;;;;6.33;69.55;99093.56;5017334;28;19922;-72
2023/10/18 05:59:33;;;;;;;;;;;;;;;6.34;69.61;99090.13;5006072;28;19926;-71
2023/10/18 06:02:42;;;;;;;;;;;;;;;6.41;69.23;99096.13;5007921;28;19922;-72
2023/10/18 06:04:51;;;;;;;;;;;;;;;6.32;68.90;99094.44;4988959;28;20012;-72
2023/10/18 06:07:22;;;;;;;;;;;;;;;6.32;68.96;99099.59;4997710;28;20268;-71
2023/10/18 06:09:58;;;;;;;;;;;;;;;6.35;69.10;99098.72;4984692;28;19975;-71
2023/10/18 06:12:27;;;;;;;;;;;;;;;6.37;68.90;99092.69;5014592;28;19934;-70
2023/10/18 06:14:54;;;;;;;;;;;;;;;6.37;68.64;99094.41;5007805;28;20164;-71
2023/10/18 06:17:22;;;;;;;;;;;;;;;6.42;68.93;99098.69;4984852;28;19939;-71
2023/10/18 06:19:50;;;;;;;;;;;;;;;6.43;68.65;99099.56;4999181;28;19925;-70
2023/10/18 06:22:29;;;;;;;;;;;;;;;6.50;68.42;99103.88;4984436;28;19922;-71
2023/10/18 06:25:00;;;;;;;;;;;;;;;6.33;68.32;99078.91;5004501;28;19997;-71
2023/10/18 06:27:38;;;;;;;;;;;;;;;6.59;68.14;99103.81;4983116;28;19972;-70
2023/10/18 06:30:14;;;;;;;;;;;;;;;6.76;68.38;99103.75;4982356;28;19969;-70
2023/10/18 06:32:46;;;;;;;;;;;;;;;6.97;68.15;99104.50;4982782;28;19926;-71
2023/10/18 06:35:17;;;;;;;;;;;;;;;7.01;67.74;99105.34;4999495;28;19929;-72
2023/10/18 06:37:44;;;;;;;;;;;;;;;7.10;68.23;99102.72;4969983;28;19922;-70
2023/10/18 06:41:18;;;;;;;;;;;;;;;7.30;67.76;99105.16;4970026;28;19922;-70
2023/10/18 06:43:08;;;;;;;;;;;;;;;7.46;67.36;99103.34;4982115;28;19932;-69
2023/10/18 06:45:49;;;;;;;;;;;;;;;7.99;67.69;99102.91;4997825;28;20131;-72
2023/10/18 06:48:28;;;;;;;;;;;;;;;8.34;67.08;99096.50;4997477;28;19929;-73
2023/10/18 06:50:57;;;;;;;;;;;;;;;9.59;66.76;99096.59;5014965;28;20977;-72
2023/10/18 06:53:28;;;;;;;;;;;;;;;11.54;67.89;99081.44;4995749;28;19928;-70
2023/10/18 07:01:00;;;;;;;;;;;;;;;13.90;59.35;99058.16;4999179;28;19922;-72
2023/10/18 07:03:35;;;;;;;;;;;;;;;14.51;59.83;99064.75;4993153;28;20285;-68
2023/10/18 07:06:05;;;;;;;;;;;;;;;14.74;58.01;99067.38;4989011;28;19965;-68
2023/10/18 07:08:34;;;;;;;;;;;;;;;16.59;59.51;99061.63;4990753;28;20304;-68
2023/10/18 07:11:08;;;;;;;;;;;;;;;18.41;56.64;99041.34;4990810;28;19933;-69
2023/10/18 07:13:34;;;;;;;;;;;;;;;19.61;53.41;99047.97;5000048;28;20012;-70
2023/10/18 07:16:06;;;;;;;;;;;;;;;20.44;51.42;99037.72;4994273;28;19922;-68
2023/10/18 07:18:35;;;;;;;;;;;;;;;20.72;50.26;99048.41;4989486;28;20355;-69
2023/10/18 07:21:09;;;;;;;;;;;;;;;19.55;48.28;99052.66;4995404;28;19993;-70
2023/10/18 07:23:40;;;;;;;;;;;;;;;18.30;48.04;99046.34;5000427;28;19926;-70
2023/10/18 07:26:16;;;;;;;;;;;;;;;18.35;50.06;99054.84;4998124;28;19960;-70
2023/10/18 07:28:43;;;;;;;;;;;;;;;17.77;48.90;99060.38;4964363;28;19929;-69
2023/10/18 07:31:10;;;;;;;;;;;;;;;17.93;49.94;99059.63;4995675;28;19933;-69
2023/10/18 07:33:42;;;;;;;;;;;;;;;19.13;49.06;99059.44;4991637;28;19980;-69
2023/10/18 07:36:09;;;;;;;;;;;;;;;19.51;48.29;99059.06;4994041;28;19929;-63
2023/10/18 07:38:37;;;;;;;;;;;;;;;20.17;45.96;99051.72;4980692;28;19933;-64
2023/10/18 07:41:04;;;;;;;;;;;;;;;19.45;45.61;99056.78;4983657;28;19934;-63
2023/10/18 07:43:32;;;;;;;;;;;;;;;20.76;45.64;99057.84;4984852;28;19906;-63
2023/10/18 07:46:06;;;;;;;;;;;;;;;22.26;43.76;99050.66;5003588;28;19926;-63
2023/10/18 07:48:37;;;;;;;;;;;;;;;23.62;43.66;99037.44;4997088;28;20370;-63
2023/10/18 07:51:08;;;;;;;;;;;;;;;24.66;40.09;99044.63;4995964;28;19933;-64
2023/10/18 07:53:35;;;;;;;;;;;;;;;25.44;38.81;99046.41;4999128;28;20190;-64
2023/10/18 07:56:03;;;;;;;;;;;;;;;25.69;37.58;99053.22;5000471;28;19965;-70
2023/10/18 07:58:47;;;;;;;;;;;;;;;24.38;37.59;99067.22;4990340;28;19929;-65
2023/10/18 08:01:13;;;;;;;;;;;;;;;22.06;38.13;99065.31;4999521;28;20273;-64
2023/10/18 08:03:42;;;;;;;;;;;;;;;20.17;39.85;99086.03;4998576;28;19929;-63
2023/10/18 08:06:26;;;;;;;;;;;;;;;18.65;41.54;99089.22;5001119;28;19952;-65
2023/10/18 08:08:56;;;;;;;;;;;;;;;18.48;43.14;99089.28;5002832;28;20449;-63
2023/10/18 08:11:23;;;;;;;;;;;;;;;18.39;42.53;99088.00;5005975;28;19976;-66
2023/10/18 08:13:58;;;;;;;;;;;;;;;17.97;41.46;99090.13;4981225;28;19925;-64
2023/10/18 08:16:27;;;;;;;;;;;;;;;16.97;42.88;99095.81;4980405;28;19969;-65
2023/10/18 08:18:53;;;;;;;;;;;;;;;16.24;43.08;99099.00;5003711;28;19929;-65
2023/10/18 08:21:26;;;;;;;;;;;;;;;15.48;43.39;99102.13;5009480;28;20335;-64
2023/10/18 08:23:56;;;;;;;;;;;;;;;14.94;44.33;99109.47;5011862;28;19922;-63
2023/10/18 08:26:35;;;;;;;;;;;;;;;14.13;44.29;99107.94;5002491;28;19928;-65
2023/10/18 08:29:04;;;;;;;;;;;;;;;13.11;45.15;99117.25;4989582;28;19922;-65
2023/10/18 08:31:35;;;;;;;;;;;;;;;12.32;46.68;99111.66;5003957;28;19968;-66
2023/10/18 08:34:18;;;;;;;;;;;;;;;11.89;47.23;99112.75;5001492;28;20380;-66
2023/10/18 08:37:11;;;;;;;;;;;;;;;11.48;47.63;99128.47;4986909;28;19929;-64
2023/10/18 08:39:40;;;;;;;;;;;;;;;11.19;47.69;99121.34;4995239;28;19921;-64
2023/10/18 08:42:20;;;;;;;;;;;;;;;11.00;48.57;99124.34;5002946;28;20600;-66
2023/10/18 08:44:55;;;;;;;;;;;;;;;10.73;48.92;99124.03;5019027;28;19929;-65
2023/10/18 08:47:29;;;;;;;;;;;;;;;10.60;49.18;99125.16;5014804;28;19921;-64
2023/10/18 08:49:56;;;;;;;;;;;;;;;10.44;49.67;99128.09;5019057;28;19925;-65
2023/10/18 08:52:28;;;;;;;;;;;;;;;10.28;49.53;99126.59;5018277;28;19981;-65
2023/10/18 08:54:55;;;;;;;;;;;;;;;10.15;50.00;99121.63;5016638;28;19940;-64
2023/10/18 08:57:35;;;;;;;;;;;;;;;10.22;50.26;99118.03;5006190;28;19921;-65
2023/10/18 09:02:50;;;;;;;;;;;;;;;10.42;49.90;99118.56;5028092;28;19921;-66
2023/10/18 09:05:22;;;;;;;;;;;;;;;10.46;49.52;99115.91;5002547;28;19925;-64
2023/10/18 09:07:54;;;;;;;;;;;;;;;10.21;49.80;99118.06;5010850;28;20011;-64
2023/10/18 09:16:11;;;;;;;;;;;;;;;9.38;51.70;99120.31;4978772;28;20064;-68
2023/10/18 09:18:37;;;;;;;;;;;;;;;9.17;51.76;99124.91;5001967;28;20311;-65
2023/10/18 09:21:26;;;;;;;;;;;;;;;8.99;52.07;99131.22;4995982;28;19920;-64
2023/10/18 09:24:00;;;;;;;;;;;;;;;8.80;52.21;99128.88;4991990;28;19920;-64
2023/10/18 09:26:28;;;;;;;;;;;;;;;8.67;52.87;99124.69;5019150;28;20008;-64
2023/10/18 09:28:56;;;;;;;;;;;;;;;8.66;52.81;99123.84;5005663;28;19943;-65
2023/10/18 09:31:22;;;;;;;;;;;;;;;8.68;53.09;99129.88;4987221;28;19932;-64
2023/10/18 09:34:33;;;;;;;;;;;;;;;8.74;52.90;99123.75;5020349;28;20383;-64
2023/10/18 09:36:40;;;;;;;;;;;;;;;8.69;53.54;99122.94;4976149;28;20412;-66
2023/10/18 09:39:15;;;;;;;;;;;;;;;8.59;53.30;99124.78;5005692;28;19921;-65
2023/10/18 09:41:40;;;;;;;;;;;;;;;8.52;53.50;99120.53;5016088;28;19922;-65
2023/10/18 09:44:07;;;;;;;;;;;;;;;8.43;53.64;99127.50;5002195;28;20273;-65
2023/10/18 09:46:36;;;;;;;;;;;;;;;8.31;53.94;99127.63;4999301;28;19928;-66
2023/10/18 09:49:20;;;;;;;;;;;;;;;8.24;54.26;99126.00;5019167;28;19928;-66
2023/10/18 09:51:53;;;;;;;;;;;;;;;8.23;54.68;99119.94;5000452;28;19926;-66
2023/10/18 09:54:27;;;;;;;;;;;;;;;8.24;54.74;99120.81;4992203;28;19921;-67
2023/10/18 09:57:02;;;;;;;;;;;;;;;8.24;54.75;99121.66;5015267;28;19929;-66
2023/10/18 09:59:31;;;;;;;;;;;;;;;8.29;55.36;99119.00;5020812;28;19925;-65
2023/10/18 10:02:00;;;;;;;;;;;;;;;8.37;55.25;99122.38;5003410;28;19925;-71
2023/10/18 10:04:52;;;;;;;;;;;;;;;8.43;54.82;99118.84;5001270;28;20333;-66
2023/10/18 10:07:41;;;;;;;;;;;;;;;8.52;55.09;99116.22;5002281;28;19925;-65
2023/10/18 10:10:43;;;;;;;;;;;;;;;8.57;55.06;99108.38;5015164;28;19925;-67
2023/10/18 10:13:08;;;;;;;;;;;;;;;8.78;55.29;99115.03;4988506;28;19949;-67
2023/10/18 10:15:37;;;;;;;;;;;;;;;8.89;54.87;99114.91;5025561;28;19950;-67
2023/10/18 10:18:06;;;;;;;;;;;;;;;8.99;55.27;99115.66;4996238;28;19968;-65
2023/10/18 10:20:40;;;;;;;;;;;;;;;9.06;54.94;99113.81;5039105;28;19922;-64
2023/10/18 10:23:13;;;;;;;;;;;;;;;9.11;54.89;99112.88;5034397;28;19949;-67
2023/10/18 10:25:48;;;;;;;;;;;;;;;9.11;54.56;99117.22;5006565;28;19975;-64
2023/10/18 10:28:37;;;;;;;;;;;;;;;9.04;55.25;99116.44;4995795;28;19928;-65
2023/10/18 10:31:06;;;;;;;;;;;;;;;8.95;55.54;99117.41;5015978;28;19932;-64
2023/10/18 10:33:51;;;;;;;;;;;;;;;8.95;55.25;99121.75;5013075;28;19975;-70
2023/10/18 10:36:28;;;;;;;;;;;;;;;8.87;55.51;99117.50;5009878;28;20474;-65
2023/10/18 10:39:03;;;;;;;;;;;;;;;8.89;55.49;99118.34;4996663;28;19921;-69
2023/10/18 10:41:31;;;;;;;;;;;;;;;8.90;55.79;99114.03;4984865;28;19926;-64
2023/10/18 10:44:08;;;;;;;;;;;;;;;8.96;55.51;99119.13;5008531;28;19921;-69
2023/10/18 10:46:45;;;;;;;;;;;;;;;9.00;56.11;99117.38;4994443;28;19921;-68
2023/10/18 10:49:34;;;;;;;;;;;;;;;9.00;56.33;99119.97;4989120;28;19948;-68
2023/10/18 10:52:04;;;;;;;;;;;;;;;9.10;55.77;99118.09;5022431;28;19932;-68
2023/10/18 10:54:30;;;;;;;;;;;;;;;9.25;56.11;99124.81;4989660;28;19921;-68
2023/10/18 10:56:58;;;;;;;;;;;;;;;9.24;55.93;99120.50;5006836;28;19976;-68
2023/10/18 10:59:25;;;;;;;;;;;;;;;9.23;56.27;99122.22;5011996;28;19936;-70
2023/10/18 11:02:06;;;;;;;;;;;;;;;9.21;56.02;99121.38;5005989;28;19948;-67
2023/10/18 11:05:03;;;;;;;;;;;;;;;9.20;56.17;99119.66;4993288;28;20425;-69
2023/10/18 11:07:39;;;;;;;;;;;;;;;9.10;56.23;99113.75;4994832;28;19925;-71
2023/10/18 11:10:16;;;;;;;;;;;;;;;9.01;56.42;99119.94;5006393;28;19932;-72
2023/10/18 11:12:52;;;;;;;;;;;;;;;8.94;56.04;99120.88;5002340;28;19924;-72
2023/10/18 11:15:27;;;;;;;;;;;;;;;8.89;56.64;99120.09;4994108;28;19921;-72
2023/10/18 11:18:09;;;;;;;;;;;;;;;9.02;56.53;99120.81;4988895;28;19932;-70
2023/10/18 11:20:58;;;;;;;;;;;;;;;9.12;56.87;99112.00;5013959;28;20293;-70
2023/10/18 11:23:37;;;;;;;;;;;;;;;9.24;56.84;99110.97;5023010;28;19922;-71
2023/10/18 11:26:19;;;;;;;;;;;;;;;9.42;56.45;99115.03;5007619;28;19922;-72
2023/10/18 11:28:46;;;;;;;;;;;;;;;9.55;56.84;99100.13;5012324;28;19922;-72
2023/10/18 11:31:26;;;;;;;;;;;;;;;9.62;56.14;99099.13;4989740;28;20379;-72
2023/10/18 11:34:14;;;;;;;;;;;;;;;9.61;56.25;99107.78;5004787;28;19922;-72
2023/10/18 11:36:43;;;;;;;;;;;;;;;9.62;56.06;99099.13;4998341;28;19991;-72
2023/10/18 11:39:22;;;;;;;;;;;;;;;9.64;56.47;99097.34;5002598;28;19933;-72
2023/10/18 11:41:59;;;;;;;;;;;;;;;9.56;56.81;99099.25;5008478;28;19928;-71
2023/10/18 11:44:34;;;;;;;;;;;;;;;9.66;56.33;99092.16;5011179;28;19922;-82
2023/10/18 11:47:21;;;;;;;;;;;;;;;9.74;56.37;99097.22;5004741;28;19921;-82
2023/10/18 11:50:01;;;;;;;;;;;;;;;9.69;56.26;99094.72;5029119;28;19949;-82
2023/10/18 11:52:39;;;;;;;;;;;;;;;9.58;56.28;99100.09;5007228;28;19926;-80
2023/10/18 11:55:13;;;;;;;;;;;;;;;9.43;56.34;99098.56;5006738;28;20041;-78
2023/10/18 11:57:40;;;;;;;;;;;;;;;9.23;56.56;99098.00;4993526;28;19925;-81
2023/10/18 12:03:04;;;;;;;;;;;;;;;8.93;57.35;99101.03;4998416;28;19924;-72
2023/10/18 12:05:57;;;;;;;;;;;;;;;8.90;57.49;99095.88;4998809;28;19949;-81
2023/10/18 12:09:09;;;;;;;;;;;;;;;8.92;57.61;99104.50;5021118;28;19929;-82
2023/10/18 12:11:41;;;;;;;;;;;;;;;9.00;57.53;99107.81;5038826;28;19964;-84
2023/10/18 12:14:41;;;;;;;;;;;;;;;8.96;58.15;99105.31;4981128;28;19925;-79
2023/10/18 12:17:18;;;;;;;;;;;;;;;8.87;57.77;99101.09;4967415;28;20345;-80
2023/10/18 12:19:48;;;;;;;;;;;;;;;8.72;58.09;99100.38;5028585;28;19916;-82
2023/10/18 12:22:47;;;;;;;;;;;;;;;;;;;;;
2023/10/18 12:25:34;;;;;;;;;;;;;;;8.64;58.77;99104.84;5003200;28;19930;-80
2023/10/18 12:28:49;;;;;;;;;;;;;;;8.68;58.79;99101.34;5022549;28;19928;-78
2023/10/18 12:31:09;;;;;;;;;;;;;;;8.70;58.70;99099.59;5003958;28;19930;-81
2023/10/18 12:34:17;;;;;;;;;;;;;;;8.70;58.64;99096.13;5022779;28;19934;-76
2023/10/18 12:37:08;;;;;;;;;;;;;;;8.64;59.02;99094.47;5009686;28;19976;-74
2023/10/18 12:39:48;;;;;;;;;;;;;;;8.61;59.68;99094.50;4994106;28;19904;-82
2023/10/18 12:42:33;;;;;;;;;;;;;;;8.50;59.14;99091.16;4987857;28;19936;-78
2023/10/18 12:45:18;;;;;;;;;;;;;;;8.35;59.42;99090.44;5014440;28;19953;-78
2023/10/18 12:48:10;;;;;;;;;;;;;;;8.29;60.15;99093.97;5006333;28;20051;-76
2023/10/18 12:50:44;;;;;;;;;;;;;;;8.29;59.90;99098.25;4975268;28;19938;-73
2023/10/18 12:56:06;;;;;;;;;;;;;;;8.37;60.60;99095.63;5028696;28;19922;-78
2023/10/18 13:04:59;;;;;;;;;;;;;;;8.51;60.36;99103.25;5019597;28;19922;-79
2023/10/18 13:07:28;;;;;;;;;;;;;;;8.39;60.87;99097.31;4991853;28;19921;-70
2023/10/18 13:09:54;;;;;;;;;;;;;;;8.36;61.00;99102.53;4999512;28;19922;-80
2023/10/18 13:12:27;;;;;;;;;;;;;;;8.41;61.17;99103.34;5021500;28;19925;-80
2023/10/18 13:14:54;;;;;;;;;;;;;;;8.48;61.21;99098.97;5000051;28;19928;-78
2023/10/18 13:17:54;;;;;;;;;;;;;;;8.53;61.06;99104.97;5000325;28;20040;-77
2023/10/18 13:21:39;;;;;;;;;;;;;;;8.52;61.36;99099.78;5185420;22;20327;-74
2023/10/18 13:27:08;;;;;;;;;;;;;;;8.59;61.30;99096.25;5051955;23;19931;-79
2023/10/18 13:32:55;;;;;;;;;;;;;;;8.56;61.37;99098.88;5201830;23;19929;-77
2023/10/18 13:35:24;;;;;;;;;;;;;;;8.54;62.12;99098.03;5006334;28;19964;-76
2023/10/18 13:37:50;;;;;;;;;;;;;;;8.53;61.98;99096.31;5018387;28;19921;-75
2023/10/18 13:40:25;;;;;;;;;;;;;;;8.48;61.96;99096.38;5009880;28;19928;-80
2023/10/18 13:42:51;;;;;;;;;;;;;;;8.41;62.02;99097.28;5005485;28;19934;-77
2023/10/18 13:45:19;;;;;;;;;;;;;;;8.33;61.92;99099.97;5023745;28;19902;-80
2023/10/18 13:47:48;;;;;;;;;;;;;;;8.27;62.69;99097.44;5006667;28;19927;-80
2023/10/18 13:50:17;;;;;;;;;;;;;;;8.27;62.51;99094.88;5018654;28;19952;-73
2023/10/18 13:52:50;;;;;;;;;;;;;;;8.28;62.64;99101.72;5015203;28;20301;-80
2023/10/18 13:55:23;;;;;;;;;;;;;;;8.28;63.03;99106.91;5017339;28;21626;-72
2023/10/18 13:57:50;;;;;;;;;;;;;;;8.26;62.75;99103.50;5005615;28;19925;-75
2023/10/18 14:00:18;;;;;;;;;;;;;;;8.21;62.79;99100.09;5013371;28;19926;-74
2023/10/18 14:02:47;;;;;;;;;;;;;;;8.12;63.21;99096.72;5000483;28;19921;-76
2023/10/18 14:05:19;;;;;;;;;;;;;;;8.03;63.04;99099.41;5019186;28;19926;-75
2023/10/18 14:07:48;;;;;;;;;;;;;;;7.99;63.06;99100.31;4985673;28;20494;-75
2023/10/18 14:10:27;;;;;;;;;;;;;;;7.89;63.20;99096.94;5028638;28;20312;-78
2023/10/18 14:12:53;;;;;;;;;;;;;;;7.75;63.45;99097.06;5021594;28;19926;-78
2023/10/18 14:15:27;;;;;;;;;;;;;;;7.65;63.85;99101.47;5027880;28;19912;-79
2023/10/18 14:17:54;;;;;;;;;;;;;;;7.60;63.96;99105.81;5025033;28;19929;-79
2023/10/18 14:21:05;;;;;;;;;;;;;;;7.52;64.39;99089.47;5091906;22;19936;-80
2023/10/18 14:23:35;;;;;;;;;;;;;;;7.54;64.43;99098.09;5004220;28;19913;-81
2023/10/18 14:26:24;;;;;;;;;;;;;;;7.51;64.53;99092.94;5048790;28;19932;-76
2023/10/18 14:29:08;;;;;;;;;;;;;;;7.34;64.29;99090.50;5017070;28;19929;-78